sensor_id;sensor_type;location;lat;lon;timestamp;P1;durP1;ratioP1;P2;durP2;ratioP2
1563;SDS011;775;51.958;7.976;2023-07-13T00:01:26;11.77;;;2.60;;
1563;SDS011;775;51.958;7.976;2023-07-13T00:03:54;12.13;;;2.30;;
1563;SDS011;775;51.958;7.976;2023-07-13T00:06:21;13.67;;;2.80;;
1563;SDS011;775;51.958;7.976;2023-07-13T00:08:48;12.43;;;3.00;;
1563;SDS011;775;51.958;7.976;2023-07-13T00:11:16;15.60;;;2.47;;
1563;SDS011;775;51.958;7.976;2023-07-13T00:13:44;12.70;;;2.60;;
1563;SDS011;775;51.958;7.976;2023-07-13T00:16:11;12.20;;;3.40;;
1563;SDS011;775;51.958;7.976;2023-07-13T00:18:39;14.17;;;2.90;;
1563;SDS011;775;51.958;7.976;2023-07-13T00:21:06;14.83;;;2.93;;
1563;SDS011;775;51.958;7.976;2023-07-13T00:23:34;15.43;;;3.37;;
1563;SDS011;775;51.958;7.976;2023-07-13T00:26:02;12.67;;;2.60;;
1563;SDS011;775;51.958;7.976;2023-07-13T00:28:31;12.83;;;2.60;;
1563;SDS011;775;51.958;7.976;2023-07-13T00:30:58;13.93;;;2.70;;
1563;SDS011;775;51.958;7.976;2023-07-13T00:33:26;19.83;;;3.07;;
1563;SDS011;775;51.958;7.976;2023-07-13T00:35:53;13.93;;;3.13;;
1563;SDS011;775;51.958;7.976;2023-07-13T00:38:21;11.83;;;2.40;;
1563;SDS011;775;51.958;7.976;2023-07-13T00:40:48;11.70;;;2.00;;
1563;SDS011;775;51.958;7.976;2023-07-13T00:43:15;14.43;;;2.90;;
1563;SDS011;775;51.958;7.976;2023-07-13T00:48:32;16.50;;;2.73;;
1563;SDS011;775;51.958;7.976;2023-07-13T00:50:59;15.70;;;3.17;;
1563;SDS011;775;51.958;7.976;2023-07-13T00:53:27;13.13;;;2.80;;
1563;SDS011;775;51.958;7.976;2023-07-13T00:55:56;12.57;;;2.80;;
1563;SDS011;775;51.958;7.976;2023-07-13T00:58:24;13.37;;;2.90;;
1563;SDS011;775;51.958;7.976;2023-07-13T01:00:52;17.87;;;3.43;;
1563;SDS011;775;51.958;7.976;2023-07-13T01:03:19;14.47;;;2.93;;
1563;SDS011;775;51.958;7.976;2023-07-13T01:05:48;12.60;;;2.43;;
1563;SDS011;775;51.958;7.976;2023-07-13T01:08:16;13.70;;;3.03;;
1563;SDS011;775;51.958;7.976;2023-07-13T01:10:50;12.00;;;2.20;;
1563;SDS011;775;51.958;7.976;2023-07-13T01:13:17;15.00;;;3.03;;
1563;SDS011;775;51.958;7.976;2023-07-13T01:15:45;13.87;;;2.50;;
1563;SDS011;775;51.958;7.976;2023-07-13T01:18:14;12.47;;;2.63;;
1563;SDS011;775;51.958;7.976;2023-07-13T01:20:47;12.70;;;2.63;;
1563;SDS011;775;51.958;7.976;2023-07-13T01:23:14;14.33;;;2.60;;
1563;SDS011;775;51.958;7.976;2023-07-13T01:25:41;17.27;;;2.60;;
1563;SDS011;775;51.958;7.976;2023-07-13T01:28:08;12.60;;;2.90;;
1563;SDS011;775;51.958;7.976;2023-07-13T01:30:35;13.30;;;2.77;;
1563;SDS011;775;51.958;7.976;2023-07-13T01:33:05;13.33;;;3.13;;
1563;SDS011;775;51.958;7.976;2023-07-13T01:35:32;13.93;;;2.90;;
1563;SDS011;775;51.958;7.976;2023-07-13T01:38:00;17.93;;;2.60;;
1563;SDS011;775;51.958;7.976;2023-07-13T01:40:28;15.63;;;2.80;;
1563;SDS011;775;51.958;7.976;2023-07-13T01:42:55;13.23;;;2.73;;
1563;SDS011;775;51.958;7.976;2023-07-13T01:45:22;14.07;;;3.30;;
1563;SDS011;775;51.958;7.976;2023-07-13T01:47:49;16.77;;;2.83;;
1563;SDS011;775;51.958;7.976;2023-07-13T01:50:16;15.10;;;3.07;;
1563;SDS011;775;51.958;7.976;2023-07-13T01:52:43;13.20;;;2.83;;
1563;SDS011;775;51.958;7.976;2023-07-13T01:55:12;12.60;;;2.40;;
1563;SDS011;775;51.958;7.976;2023-07-13T01:57:39;11.73;;;2.90;;
1563;SDS011;775;51.958;7.976;2023-07-13T02:00:06;15.50;;;3.33;;
1563;SDS011;775;51.958;7.976;2023-07-13T02:02:34;12.20;;;2.90;;
1563;SDS011;775;51.958;7.976;2023-07-13T02:05:01;15.77;;;3.27;;
1563;SDS011;775;51.958;7.976;2023-07-13T02:07:28;13.40;;;2.70;;
1563;SDS011;775;51.958;7.976;2023-07-13T02:09:55;14.70;;;3.13;;
1563;SDS011;775;51.958;7.976;2023-07-13T02:12:23;14.17;;;2.80;;
1563;SDS011;775;51.958;7.976;2023-07-13T02:14:50;12.33;;;3.23;;
1563;SDS011;775;51.958;7.976;2023-07-13T02:17:17;15.20;;;3.63;;
1563;SDS011;775;51.958;7.976;2023-07-13T02:19:44;14.10;;;2.97;;
1563;SDS011;775;51.958;7.976;2023-07-13T02:22:12;13.67;;;3.20;;
1563;SDS011;775;51.958;7.976;2023-07-13T02:24:39;14.17;;;3.57;;
1563;SDS011;775;51.958;7.976;2023-07-13T02:27:06;16.87;;;3.23;;
1563;SDS011;775;51.958;7.976;2023-07-13T02:29:34;17.23;;;3.23;;
1563;SDS011;775;51.958;7.976;2023-07-13T02:32:02;14.23;;;3.23;;
1563;SDS011;775;51.958;7.976;2023-07-13T02:34:29;13.77;;;3.80;;
1563;SDS011;775;51.958;7.976;2023-07-13T02:36:56;15.40;;;3.60;;
1563;SDS011;775;51.958;7.976;2023-07-13T02:39:23;14.87;;;4.17;;
1563;SDS011;775;51.958;7.976;2023-07-13T02:41:50;13.53;;;3.20;;
1563;SDS011;775;51.958;7.976;2023-07-13T02:44:17;16.63;;;3.53;;
1563;SDS011;775;51.958;7.976;2023-07-13T02:46:45;17.77;;;3.10;;
1563;SDS011;775;51.958;7.976;2023-07-13T02:49:13;16.20;;;3.80;;
1563;SDS011;775;51.958;7.976;2023-07-13T02:51:40;17.47;;;3.57;;
1563;SDS011;775;51.958;7.976;2023-07-13T02:54:07;15.60;;;4.00;;
1563;SDS011;775;51.958;7.976;2023-07-13T02:56:34;14.23;;;3.80;;
1563;SDS011;775;51.958;7.976;2023-07-13T02:59:01;12.90;;;3.30;;
1563;SDS011;775;51.958;7.976;2023-07-13T03:01:28;17.93;;;4.17;;
1563;SDS011;775;51.958;7.976;2023-07-13T03:04:01;15.73;;;3.53;;
1563;SDS011;775;51.958;7.976;2023-07-13T03:06:28;12.97;;;3.03;;
1563;SDS011;775;51.958;7.976;2023-07-13T03:08:57;12.63;;;2.97;;
1563;SDS011;775;51.958;7.976;2023-07-13T03:11:25;14.03;;;3.77;;
1563;SDS011;775;51.958;7.976;2023-07-13T03:13:52;15.47;;;3.60;;
1563;SDS011;775;51.958;7.976;2023-07-13T03:16:19;15.60;;;3.67;;
1563;SDS011;775;51.958;7.976;2023-07-13T03:18:46;17.47;;;3.70;;
1563;SDS011;775;51.958;7.976;2023-07-13T03:21:15;15.40;;;3.70;;
1563;SDS011;775;51.958;7.976;2023-07-13T03:23:42;14.40;;;3.80;;
1563;SDS011;775;51.958;7.976;2023-07-13T03:26:11;13.83;;;4.00;;
1563;SDS011;775;51.958;7.976;2023-07-13T03:28:38;14.13;;;2.90;;
1563;SDS011;775;51.958;7.976;2023-07-13T03:31:06;16.97;;;3.50;;
1563;SDS011;775;51.958;7.976;2023-07-13T03:33:34;13.83;;;3.30;;
1563;SDS011;775;51.958;7.976;2023-07-13T03:36:01;15.10;;;4.37;;
1563;SDS011;775;51.958;7.976;2023-07-13T03:38:30;13.27;;;3.13;;
1563;SDS011;775;51.958;7.976;2023-07-13T03:40:57;13.60;;;3.10;;
1563;SDS011;775;51.958;7.976;2023-07-13T03:43:24;12.80;;;2.80;;
1563;SDS011;775;51.958;7.976;2023-07-13T03:45:51;16.33;;;3.50;;
1563;SDS011;775;51.958;7.976;2023-07-13T03:48:18;14.27;;;2.80;;
1563;SDS011;775;51.958;7.976;2023-07-13T03:50:46;14.37;;;2.80;;
1563;SDS011;775;51.958;7.976;2023-07-13T03:53:14;12.70;;;3.30;;
1563;SDS011;775;51.958;7.976;2023-07-13T03:55:42;16.50;;;3.20;;
1563;SDS011;775;51.958;7.976;2023-07-13T03:58:24;12.93;;;2.63;;
1563;SDS011;775;51.958;7.976;2023-07-13T04:00:51;13.80;;;2.83;;
1563;SDS011;775;51.958;7.976;2023-07-13T04:03:18;14.90;;;3.00;;
1563;SDS011;775;51.958;7.976;2023-07-13T04:05:46;13.77;;;2.30;;
1563;SDS011;775;51.958;7.976;2023-07-13T04:08:13;13.43;;;2.60;;
1563;SDS011;775;51.958;7.976;2023-07-13T04:10:40;12.67;;;2.50;;
1563;SDS011;775;51.958;7.976;2023-07-13T04:13:08;13.70;;;2.47;;
1563;SDS011;775;51.958;7.976;2023-07-13T04:15:35;17.00;;;2.60;;
1563;SDS011;775;51.958;7.976;2023-07-13T04:18:02;15.03;;;2.90;;
1563;SDS011;775;51.958;7.976;2023-07-13T04:20:29;14.30;;;2.63;;
1563;SDS011;775;51.958;7.976;2023-07-13T04:22:57;14.60;;;2.53;;
1563;SDS011;775;51.958;7.976;2023-07-13T04:25:24;15.00;;;2.50;;
1563;SDS011;775;51.958;7.976;2023-07-13T04:27:52;12.27;;;2.37;;
1563;SDS011;775;51.958;7.976;2023-07-13T04:30:20;12.63;;;2.47;;
1563;SDS011;775;51.958;7.976;2023-07-13T04:32:48;16.30;;;3.10;;
1563;SDS011;775;51.958;7.976;2023-07-13T04:35:15;14.27;;;2.67;;
1563;SDS011;775;51.958;7.976;2023-07-13T04:37:42;12.60;;;2.10;;
1563;SDS011;775;51.958;7.976;2023-07-13T04:40:10;15.27;;;2.10;;
1563;SDS011;775;51.958;7.976;2023-07-13T04:42:37;14.47;;;2.40;;
1563;SDS011;775;51.958;7.976;2023-07-13T04:45:05;14.90;;;2.40;;
1563;SDS011;775;51.958;7.976;2023-07-13T04:47:34;13.73;;;2.33;;
1563;SDS011;775;51.958;7.976;2023-07-13T04:50:01;12.00;;;2.10;;
1563;SDS011;775;51.958;7.976;2023-07-13T04:52:28;13.20;;;2.00;;
1563;SDS011;775;51.958;7.976;2023-07-13T04:54:55;11.43;;;2.13;;
1563;SDS011;775;51.958;7.976;2023-07-13T04:57:22;12.27;;;2.13;;
1563;SDS011;775;51.958;7.976;2023-07-13T04:59:49;13.67;;;2.10;;
1563;SDS011;775;51.958;7.976;2023-07-13T05:02:16;12.20;;;2.07;;
1563;SDS011;775;51.958;7.976;2023-07-13T05:04:47;13.63;;;2.17;;
1563;SDS011;775;51.958;7.976;2023-07-13T05:07:14;12.53;;;2.50;;
1563;SDS011;775;51.958;7.976;2023-07-13T05:09:41;13.20;;;2.13;;
1563;SDS011;775;51.958;7.976;2023-07-13T05:12:08;12.30;;;2.20;;
1563;SDS011;775;51.958;7.976;2023-07-13T05:14:36;12.40;;;2.70;;
1563;SDS011;775;51.958;7.976;2023-07-13T05:17:03;10.97;;;1.90;;
1563;SDS011;775;51.958;7.976;2023-07-13T05:19:30;14.30;;;1.70;;
1563;SDS011;775;51.958;7.976;2023-07-13T05:21:59;13.80;;;2.20;;
1563;SDS011;775;51.958;7.976;2023-07-13T05:24:27;15.40;;;2.10;;
1563;SDS011;775;51.958;7.976;2023-07-13T05:26:55;13.73;;;2.50;;
1563;SDS011;775;51.958;7.976;2023-07-13T05:29:22;13.47;;;1.93;;
1563;SDS011;775;51.958;7.976;2023-07-13T05:31:49;16.10;;;2.60;;
1563;SDS011;775;51.958;7.976;2023-07-13T05:34:17;14.37;;;2.33;;
1563;SDS011;775;51.958;7.976;2023-07-13T05:36:44;14.07;;;2.90;;
1563;SDS011;775;51.958;7.976;2023-07-13T05:39:12;15.17;;;2.70;;
1563;SDS011;775;51.958;7.976;2023-07-13T05:41:39;13.73;;;1.90;;
1563;SDS011;775;51.958;7.976;2023-07-13T05:44:06;12.17;;;2.07;;
1563;SDS011;775;51.958;7.976;2023-07-13T05:46:34;13.87;;;2.50;;
1563;SDS011;775;51.958;7.976;2023-07-13T05:49:01;13.23;;;2.23;;
1563;SDS011;775;51.958;7.976;2023-07-13T05:51:28;13.13;;;2.17;;
1563;SDS011;775;51.958;7.976;2023-07-13T05:53:55;17.13;;;2.80;;
1563;SDS011;775;51.958;7.976;2023-07-13T05:56:23;13.47;;;2.30;;
1563;SDS011;775;51.958;7.976;2023-07-13T05:58:51;16.93;;;2.50;;
1563;SDS011;775;51.958;7.976;2023-07-13T06:01:18;12.80;;;2.33;;
1563;SDS011;775;51.958;7.976;2023-07-13T06:03:47;12.50;;;1.83;;
1563;SDS011;775;51.958;7.976;2023-07-13T06:06:14;15.50;;;2.17;;
1563;SDS011;775;51.958;7.976;2023-07-13T06:08:42;12.30;;;2.37;;
1563;SDS011;775;51.958;7.976;2023-07-13T06:11:10;13.17;;;2.13;;
1563;SDS011;775;51.958;7.976;2023-07-13T06:13:40;18.50;;;2.40;;
1563;SDS011;775;51.958;7.976;2023-07-13T06:16:07;14.50;;;2.60;;
1563;SDS011;775;51.958;7.976;2023-07-13T06:18:35;16.23;;;2.50;;
1563;SDS011;775;51.958;7.976;2023-07-13T06:21:05;14.37;;;2.83;;
1563;SDS011;775;51.958;7.976;2023-07-13T06:23:32;15.63;;;2.90;;
1563;SDS011;775;51.958;7.976;2023-07-13T06:25:59;14.77;;;2.30;;
1563;SDS011;775;51.958;7.976;2023-07-13T06:28:26;13.70;;;2.57;;
1563;SDS011;775;51.958;7.976;2023-07-13T06:30:55;13.07;;;2.50;;
1563;SDS011;775;51.958;7.976;2023-07-13T06:33:22;18.27;;;2.53;;
1563;SDS011;775;51.958;7.976;2023-07-13T06:35:49;14.73;;;3.20;;
1563;SDS011;775;51.958;7.976;2023-07-13T06:38:16;16.70;;;3.70;;
1563;SDS011;775;51.958;7.976;2023-07-13T06:40:43;14.80;;;2.90;;
1563;SDS011;775;51.958;7.976;2023-07-13T06:43:10;16.93;;;3.40;;
1563;SDS011;775;51.958;7.976;2023-07-13T06:45:40;16.00;;;3.10;;
1563;SDS011;775;51.958;7.976;2023-07-13T06:48:09;15.20;;;3.40;;
1563;SDS011;775;51.958;7.976;2023-07-13T06:50:36;14.90;;;3.07;;
1563;SDS011;775;51.958;7.976;2023-07-13T06:53:03;19.03;;;3.63;;
1563;SDS011;775;51.958;7.976;2023-07-13T06:55:30;14.43;;;2.97;;
1563;SDS011;775;51.958;7.976;2023-07-13T06:57:57;19.17;;;3.40;;
1563;SDS011;775;51.958;7.976;2023-07-13T07:00:25;15.70;;;3.30;;
1563;SDS011;775;51.958;7.976;2023-07-13T07:02:52;16.00;;;3.10;;
1563;SDS011;775;51.958;7.976;2023-07-13T07:05:20;14.90;;;3.23;;
1563;SDS011;775;51.958;7.976;2023-07-13T07:07:48;14.07;;;3.00;;
1563;SDS011;775;51.958;7.976;2023-07-13T07:10:15;14.40;;;2.70;;
1563;SDS011;775;51.958;7.976;2023-07-13T07:12:42;19.73;;;3.63;;
1563;SDS011;775;51.958;7.976;2023-07-13T07:15:09;15.33;;;3.07;;
1563;SDS011;775;51.958;7.976;2023-07-13T07:17:36;17.87;;;3.27;;
1563;SDS011;775;51.958;7.976;2023-07-13T07:20:04;15.13;;;3.40;;
1563;SDS011;775;51.958;7.976;2023-07-13T07:22:33;17.63;;;3.50;;
1563;SDS011;775;51.958;7.976;2023-07-13T07:25:00;18.10;;;2.53;;
1563;SDS011;775;51.958;7.976;2023-07-13T07:27:27;16.17;;;3.17;;
1563;SDS011;775;51.958;7.976;2023-07-13T07:29:54;17.23;;;3.53;;
1563;SDS011;775;51.958;7.976;2023-07-13T07:32:22;17.70;;;3.20;;
1563;SDS011;775;51.958;7.976;2023-07-13T07:34:49;13.73;;;2.83;;
1563;SDS011;775;51.958;7.976;2023-07-13T07:37:17;15.43;;;3.10;;
1563;SDS011;775;51.958;7.976;2023-07-13T07:39:45;17.43;;;3.07;;
1563;SDS011;775;51.958;7.976;2023-07-13T07:42:12;15.03;;;4.00;;
1563;SDS011;775;51.958;7.976;2023-07-13T07:44:40;24.07;;;3.73;;
1563;SDS011;775;51.958;7.976;2023-07-13T07:47:07;14.97;;;3.10;;
1563;SDS011;775;51.958;7.976;2023-07-13T07:49:34;15.10;;;3.23;;
1563;SDS011;775;51.958;7.976;2023-07-13T07:52:01;13.20;;;2.80;;
1563;SDS011;775;51.958;7.976;2023-07-13T07:54:29;19.00;;;3.57;;
1563;SDS011;775;51.958;7.976;2023-07-13T07:56:57;19.10;;;3.00;;
1563;SDS011;775;51.958;7.976;2023-07-13T07:59:24;13.63;;;3.20;;
1563;SDS011;775;51.958;7.976;2023-07-13T08:01:51;17.90;;;3.73;;
1563;SDS011;775;51.958;7.976;2023-07-13T08:04:18;20.10;;;3.50;;
1563;SDS011;775;51.958;7.976;2023-07-13T08:06:45;16.60;;;3.70;;
1563;SDS011;775;51.958;7.976;2023-07-13T08:09:12;14.63;;;3.30;;
1563;SDS011;775;51.958;7.976;2023-07-13T08:11:40;13.57;;;2.97;;
1563;SDS011;775;51.958;7.976;2023-07-13T08:14:08;14.17;;;3.20;;
1563;SDS011;775;51.958;7.976;2023-07-13T08:16:35;14.40;;;3.40;;
1563;SDS011;775;51.958;7.976;2023-07-13T08:19:02;15.67;;;3.43;;
1563;SDS011;775;51.958;7.976;2023-07-13T08:21:31;15.67;;;3.47;;
1563;SDS011;775;51.958;7.976;2023-07-13T08:23:58;15.53;;;3.70;;
1563;SDS011;775;51.958;7.976;2023-07-13T08:26:25;15.90;;;3.20;;
1563;SDS011;775;51.958;7.976;2023-07-13T08:28:52;12.40;;;2.50;;
1563;SDS011;775;51.958;7.976;2023-07-13T08:31:20;17.53;;;3.27;;
1563;SDS011;775;51.958;7.976;2023-07-13T08:33:48;13.63;;;2.57;;
1563;SDS011;775;51.958;7.976;2023-07-13T08:36:15;13.80;;;2.50;;
1563;SDS011;775;51.958;7.976;2023-07-13T08:38:42;14.17;;;2.47;;
1563;SDS011;775;51.958;7.976;2023-07-13T08:41:10;18.00;;;2.67;;
1563;SDS011;775;51.958;7.976;2023-07-13T08:43:38;14.13;;;2.20;;
1563;SDS011;775;51.958;7.976;2023-07-13T08:46:07;13.77;;;2.50;;
1563;SDS011;775;51.958;7.976;2023-07-13T08:48:38;13.20;;;2.10;;
1563;SDS011;775;51.958;7.976;2023-07-13T08:51:11;16.13;;;2.67;;
1563;SDS011;775;51.958;7.976;2023-07-13T08:53:43;14.60;;;2.70;;
1563;SDS011;775;51.958;7.976;2023-07-13T08:56:19;13.63;;;2.73;;
1563;SDS011;775;51.958;7.976;2023-07-13T08:58:47;14.20;;;2.80;;
1563;SDS011;775;51.958;7.976;2023-07-13T09:01:17;18.07;;;3.30;;
1563;SDS011;775;51.958;7.976;2023-07-13T09:03:52;15.90;;;2.83;;
1563;SDS011;775;51.958;7.976;2023-07-13T09:06:27;16.10;;;3.10;;
1563;SDS011;775;51.958;7.976;2023-07-13T09:08:57;20.60;;;3.50;;
1563;SDS011;775;51.958;7.976;2023-07-13T09:11:37;14.20;;;3.00;;
1563;SDS011;775;51.958;7.976;2023-07-13T09:14:06;12.60;;;3.10;;
1563;SDS011;775;51.958;7.976;2023-07-13T09:16:37;15.00;;;2.57;;
1563;SDS011;775;51.958;7.976;2023-07-13T09:19:10;14.50;;;3.00;;
1563;SDS011;775;51.958;7.976;2023-07-13T09:21:38;14.73;;;2.60;;
1563;SDS011;775;51.958;7.976;2023-07-13T09:24:28;14.53;;;2.90;;
1563;SDS011;775;51.958;7.976;2023-07-13T09:26:56;13.23;;;2.93;;
1563;SDS011;775;51.958;7.976;2023-07-13T09:29:27;15.47;;;3.30;;
1563;SDS011;775;51.958;7.976;2023-07-13T09:31:58;13.03;;;3.17;;
1563;SDS011;775;51.958;7.976;2023-07-13T09:34:29;13.50;;;3.30;;
1563;SDS011;775;51.958;7.976;2023-07-13T09:36:56;12.83;;;3.07;;
1563;SDS011;775;51.958;7.976;2023-07-13T09:39:24;14.40;;;2.87;;
1563;SDS011;775;51.958;7.976;2023-07-13T09:41:54;12.90;;;2.70;;
1563;SDS011;775;51.958;7.976;2023-07-13T09:44:27;15.70;;;4.70;;
1563;SDS011;775;51.958;7.976;2023-07-13T09:46:56;13.50;;;3.17;;
1563;SDS011;775;51.958;7.976;2023-07-13T09:49:23;14.80;;;3.50;;
1563;SDS011;775;51.958;7.976;2023-07-13T09:51:57;16.33;;;3.50;;
1563;SDS011;775;51.958;7.976;2023-07-13T09:54:24;15.30;;;3.67;;
1563;SDS011;775;51.958;7.976;2023-07-13T09:56:53;15.77;;;3.50;;
1563;SDS011;775;51.958;7.976;2023-07-13T09:59:21;14.23;;;3.50;;
1563;SDS011;775;51.958;7.976;2023-07-13T10:01:49;13.53;;;3.10;;
1563;SDS011;775;51.958;7.976;2023-07-13T10:04:17;12.53;;;3.23;;
1563;SDS011;775;51.958;7.976;2023-07-13T10:06:45;14.60;;;4.10;;
1563;SDS011;775;51.958;7.976;2023-07-13T10:09:16;16.70;;;3.70;;
1563;SDS011;775;51.958;7.976;2023-07-13T10:11:44;15.47;;;3.83;;
1563;SDS011;775;51.958;7.976;2023-07-13T10:14:12;16.77;;;4.13;;
1563;SDS011;775;51.958;7.976;2023-07-13T10:16:40;14.00;;;4.60;;
1563;SDS011;775;51.958;7.976;2023-07-13T10:19:10;19.07;;;4.87;;
1563;SDS011;775;51.958;7.976;2023-07-13T10:21:39;16.93;;;4.93;;
1563;SDS011;775;51.958;7.976;2023-07-13T10:24:10;15.27;;;5.40;;
1563;SDS011;775;51.958;7.976;2023-07-13T10:26:42;15.57;;;5.67;;
1563;SDS011;775;51.958;7.976;2023-07-13T10:29:13;16.43;;;5.50;;
1563;SDS011;775;51.958;7.976;2023-07-13T10:31:41;14.90;;;5.40;;
1563;SDS011;775;51.958;7.976;2023-07-13T10:34:09;15.20;;;4.77;;
1563;SDS011;775;51.958;7.976;2023-07-13T10:36:39;19.07;;;5.90;;
1563;SDS011;775;51.958;7.976;2023-07-13T10:39:09;16.00;;;5.60;;
1563;SDS011;775;51.958;7.976;2023-07-13T10:41:38;15.90;;;5.40;;
1563;SDS011;775;51.958;7.976;2023-07-13T10:44:09;16.30;;;5.57;;
1563;SDS011;775;51.958;7.976;2023-07-13T10:46:39;21.07;;;6.53;;
1563;SDS011;775;51.958;7.976;2023-07-13T10:49:06;22.37;;;6.27;;
1563;SDS011;775;51.958;7.976;2023-07-13T10:51:35;16.53;;;5.03;;
1563;SDS011;775;51.958;7.976;2023-07-13T10:54:16;14.40;;;5.00;;
1563;SDS011;775;51.958;7.976;2023-07-13T10:56:43;16.60;;;5.23;;
1563;SDS011;775;51.958;7.976;2023-07-13T10:59:15;16.33;;;4.90;;
1563;SDS011;775;51.958;7.976;2023-07-13T11:01:48;13.77;;;4.00;;
1563;SDS011;775;51.958;7.976;2023-07-13T11:04:15;14.90;;;4.70;;
1563;SDS011;775;51.958;7.976;2023-07-13T11:06:43;12.40;;;3.57;;
1563;SDS011;775;51.958;7.976;2023-07-13T11:11:56;13.70;;;3.70;;
1563;SDS011;775;51.958;7.976;2023-07-13T11:14:29;13.23;;;3.60;;
1563;SDS011;775;51.958;7.976;2023-07-13T11:16:56;15.03;;;4.97;;
1563;SDS011;775;51.958;7.976;2023-07-13T11:22:16;14.97;;;4.30;;
1563;SDS011;775;51.958;7.976;2023-07-13T11:24:50;13.07;;;4.13;;
1563;SDS011;775;51.958;7.976;2023-07-13T11:27:22;13.43;;;4.60;;
1563;SDS011;775;51.958;7.976;2023-07-13T11:29:51;14.00;;;4.33;;
1563;SDS011;775;51.958;7.976;2023-07-13T11:32:22;13.17;;;3.70;;
1563;SDS011;775;51.958;7.976;2023-07-13T11:34:51;14.70;;;5.50;;
1563;SDS011;775;51.958;7.976;2023-07-13T11:37:20;12.33;;;3.83;;
1563;SDS011;775;51.958;7.976;2023-07-13T11:39:48;15.07;;;4.77;;
1563;SDS011;775;51.958;7.976;2023-07-13T11:42:18;14.50;;;4.97;;
1563;SDS011;775;51.958;7.976;2023-07-13T11:44:45;16.77;;;4.10;;
1563;SDS011;775;51.958;7.976;2023-07-13T11:47:17;15.10;;;3.93;;
1563;SDS011;775;51.958;7.976;2023-07-13T11:49:48;15.80;;;4.13;;
1563;SDS011;775;51.958;7.976;2023-07-13T11:52:17;14.17;;;3.50;;
1563;SDS011;775;51.958;7.976;2023-07-13T11:54:46;13.30;;;3.80;;
1563;SDS011;775;51.958;7.976;2023-07-13T11:57:18;12.50;;;3.50;;
1563;SDS011;775;51.958;7.976;2023-07-13T11:59:46;15.00;;;3.67;;
1563;SDS011;775;51.958;7.976;2023-07-13T12:02:16;14.60;;;3.20;;
1563;SDS011;775;51.958;7.976;2023-07-13T12:04:45;12.77;;;2.40;;
1563;SDS011;775;51.958;7.976;2023-07-13T12:07:14;16.60;;;3.80;;
1563;SDS011;775;51.958;7.976;2023-07-13T12:09:42;12.40;;;2.80;;
1563;SDS011;775;51.958;7.976;2023-07-13T12:12:10;14.83;;;3.37;;
1563;SDS011;775;51.958;7.976;2023-07-13T12:14:37;13.00;;;2.60;;
1563;SDS011;775;51.958;7.976;2023-07-13T12:17:07;16.50;;;3.60;;
1563;SDS011;775;51.958;7.976;2023-07-13T12:19:37;12.20;;;2.63;;
1563;SDS011;775;51.958;7.976;2023-07-13T12:22:08;14.40;;;2.40;;
1563;SDS011;775;51.958;7.976;2023-07-13T12:24:38;12.70;;;2.80;;
1563;SDS011;775;51.958;7.976;2023-07-13T12:27:13;13.10;;;2.57;;
1563;SDS011;775;51.958;7.976;2023-07-13T12:29:48;11.90;;;2.13;;
1563;SDS011;775;51.958;7.976;2023-07-13T12:32:16;15.00;;;2.37;;
1563;SDS011;775;51.958;7.976;2023-07-13T12:34:52;12.70;;;2.27;;
1563;SDS011;775;51.958;7.976;2023-07-13T12:37:19;14.60;;;3.00;;
1563;SDS011;775;51.958;7.976;2023-07-13T12:39:47;13.20;;;2.73;;
1563;SDS011;775;51.958;7.976;2023-07-13T12:42:18;12.10;;;2.50;;
1563;SDS011;775;51.958;7.976;2023-07-13T12:44:48;13.63;;;2.40;;
1563;SDS011;775;51.958;7.976;2023-07-13T12:47:16;18.10;;;2.83;;
1563;SDS011;775;51.958;7.976;2023-07-13T12:49:48;15.20;;;2.70;;
1563;SDS011;775;51.958;7.976;2023-07-13T12:52:19;11.53;;;2.40;;
1563;SDS011;775;51.958;7.976;2023-07-13T12:54:53;12.40;;;2.60;;
1563;SDS011;775;51.958;7.976;2023-07-13T12:57:22;13.73;;;2.50;;
1563;SDS011;775;51.958;7.976;2023-07-13T12:59:52;13.70;;;2.30;;
1563;SDS011;775;51.958;7.976;2023-07-13T13:02:25;15.43;;;2.40;;
1563;SDS011;775;51.958;7.976;2023-07-13T13:04:54;11.40;;;2.20;;
1563;SDS011;775;51.958;7.976;2023-07-13T13:07:23;13.83;;;2.43;;
1563;SDS011;775;51.958;7.976;2023-07-13T13:09:51;13.10;;;2.90;;
1563;SDS011;775;51.958;7.976;2023-07-13T13:12:19;12.60;;;2.60;;
1563;SDS011;775;51.958;7.976;2023-07-13T13:14:47;13.80;;;3.13;;
1563;SDS011;775;51.958;7.976;2023-07-13T13:17:16;13.13;;;3.00;;
1563;SDS011;775;51.958;7.976;2023-07-13T13:19:45;13.20;;;2.93;;
1563;SDS011;775;51.958;7.976;2023-07-13T13:22:12;13.93;;;3.27;;
1563;SDS011;775;51.958;7.976;2023-07-13T13:24:41;13.53;;;2.40;;
1563;SDS011;775;51.958;7.976;2023-07-13T13:27:12;12.50;;;3.00;;
1563;SDS011;775;51.958;7.976;2023-07-13T13:29:39;13.90;;;3.57;;
1563;SDS011;775;51.958;7.976;2023-07-13T13:32:09;12.70;;;3.07;;
1563;SDS011;775;51.958;7.976;2023-07-13T13:34:36;15.57;;;3.33;;
1563;SDS011;775;51.958;7.976;2023-07-13T13:37:04;19.90;;;4.73;;
1563;SDS011;775;51.958;7.976;2023-07-13T13:39:36;21.17;;;4.93;;
1563;SDS011;775;51.958;7.976;2023-07-13T13:42:05;16.50;;;4.00;;
1563;SDS011;775;51.958;7.976;2023-07-13T13:44:32;13.90;;;3.63;;
1563;SDS011;775;51.958;7.976;2023-07-13T13:46:59;13.43;;;3.63;;
1563;SDS011;775;51.958;7.976;2023-07-13T13:49:27;17.33;;;3.67;;
1563;SDS011;775;51.958;7.976;2023-07-13T13:51:54;13.60;;;3.57;;
1563;SDS011;775;51.958;7.976;2023-07-13T13:54:22;18.20;;;4.50;;
1563;SDS011;775;51.958;7.976;2023-07-13T13:56:51;15.33;;;4.47;;
1563;SDS011;775;51.958;7.976;2023-07-13T13:59:20;13.03;;;3.50;;
1563;SDS011;775;51.958;7.976;2023-07-13T14:01:47;13.03;;;3.80;;
1563;SDS011;775;51.958;7.976;2023-07-13T14:04:16;12.47;;;3.30;;
1563;SDS011;775;51.958;7.976;2023-07-13T14:06:44;17.90;;;4.07;;
1563;SDS011;775;51.958;7.976;2023-07-13T14:09:11;16.57;;;4.20;;
1563;SDS011;775;51.958;7.976;2023-07-13T14:11:39;14.13;;;3.90;;
1563;SDS011;775;51.958;7.976;2023-07-13T14:14:08;14.20;;;4.53;;
1563;SDS011;775;51.958;7.976;2023-07-13T14:16:38;18.33;;;3.80;;
1563;SDS011;775;51.958;7.976;2023-07-13T14:19:08;13.50;;;3.63;;
1563;SDS011;775;51.958;7.976;2023-07-13T14:21:36;13.33;;;3.47;;
1563;SDS011;775;51.958;7.976;2023-07-13T14:24:04;15.43;;;3.70;;
1563;SDS011;775;51.958;7.976;2023-07-13T14:26:32;13.63;;;3.90;;
1563;SDS011;775;51.958;7.976;2023-07-13T14:29:02;13.93;;;3.13;;
1563;SDS011;775;51.958;7.976;2023-07-13T14:31:31;13.80;;;3.60;;
1563;SDS011;775;51.958;7.976;2023-07-13T14:34:00;13.23;;;3.20;;
1563;SDS011;775;51.958;7.976;2023-07-13T14:36:28;12.83;;;2.93;;
1563;SDS011;775;51.958;7.976;2023-07-13T14:38:55;13.70;;;3.37;;
1563;SDS011;775;51.958;7.976;2023-07-13T14:41:23;12.80;;;2.47;;
1563;SDS011;775;51.958;7.976;2023-07-13T14:43:50;11.80;;;2.57;;
1563;SDS011;775;51.958;7.976;2023-07-13T14:46:21;12.23;;;2.30;;
1563;SDS011;775;51.958;7.976;2023-07-13T14:48:48;11.73;;;2.30;;
1563;SDS011;775;51.958;7.976;2023-07-13T14:51:17;12.37;;;2.53;;
1563;SDS011;775;51.958;7.976;2023-07-13T14:53:44;12.17;;;2.00;;
1563;SDS011;775;51.958;7.976;2023-07-13T14:56:11;14.53;;;2.40;;
1563;SDS011;775;51.958;7.976;2023-07-13T14:58:39;11.57;;;2.30;;
1563;SDS011;775;51.958;7.976;2023-07-13T15:01:08;11.77;;;2.40;;
1563;SDS011;775;51.958;7.976;2023-07-13T15:03:36;12.30;;;2.60;;
1563;SDS011;775;51.958;7.976;2023-07-13T15:06:03;11.50;;;2.27;;
1563;SDS011;775;51.958;7.976;2023-07-13T15:08:32;13.57;;;2.53;;
1563;SDS011;775;51.958;7.976;2023-07-13T15:10:59;13.00;;;2.47;;
1563;SDS011;775;51.958;7.976;2023-07-13T15:13:26;12.90;;;2.50;;
1563;SDS011;775;51.958;7.976;2023-07-13T15:15:54;11.90;;;2.53;;
1563;SDS011;775;51.958;7.976;2023-07-13T15:18:21;11.17;;;2.27;;
1563;SDS011;775;51.958;7.976;2023-07-13T15:20:49;12.53;;;2.50;;
1563;SDS011;775;51.958;7.976;2023-07-13T15:23:18;12.50;;;2.70;;
1563;SDS011;775;51.958;7.976;2023-07-13T15:25:46;13.37;;;2.57;;
1563;SDS011;775;51.958;7.976;2023-07-13T15:28:13;12.20;;;2.60;;
1563;SDS011;775;51.958;7.976;2023-07-13T15:30:41;11.70;;;2.20;;